createdAt,value
2024-04-16T00:01:43.372Z,43.23
2024-04-16T00:04:11.449Z,43.02
2024-04-16T00:06:38.480Z,43.21
2024-04-16T00:09:05.794Z,43.51
2024-04-16T00:11:32.902Z,43.71
2024-04-16T00:13:59.988Z,43.35
2024-04-16T00:16:27.073Z,43.64
2024-04-16T00:18:55.715Z,43.64
2024-04-16T00:21:22.772Z,43.91
2024-04-16T00:23:49.986Z,43.22
2024-04-16T00:26:17.092Z,43.92
2024-04-16T00:28:44.218Z,43.48
2024-04-16T00:31:11.298Z,43.42
2024-04-16T00:33:38.432Z,43.43
2024-04-16T00:36:06.066Z,43.24
2024-04-16T00:38:33.076Z,43.44
2024-04-16T00:41:00.109Z,43.53
2024-04-16T00:43:27.318Z,43.50
2024-04-16T00:45:55.485Z,43.83
2024-04-16T00:48:26.207Z,43.53
2024-04-16T00:50:55.581Z,43.77
2024-04-16T00:53:23.064Z,43.76
2024-04-16T00:55:50.300Z,43.62
2024-04-16T00:58:18.164Z,43.70
2024-04-16T01:03:36.941Z,44.23
2024-04-16T01:06:04.444Z,44.20
2024-04-16T01:08:31.561Z,44.30
2024-04-16T01:10:58.715Z,43.97
2024-04-16T01:13:25.973Z,44.03
2024-04-16T01:15:53.085Z,44.06
2024-04-16T01:18:20.188Z,43.83
2024-04-16T01:20:47.226Z,44.03
2024-04-16T01:23:14.353Z,43.90
2024-04-16T01:25:44.106Z,43.77
2024-04-16T01:28:11.157Z,43.99
2024-04-16T01:30:38.510Z,44.10
2024-04-16T01:33:05.855Z,43.96
2024-04-16T01:35:32.995Z,44.50
2024-04-16T01:38:00.064Z,45.72
2024-04-16T01:40:27.784Z,45.85
2024-04-16T01:42:54.878Z,46.28
2024-04-16T01:45:21.897Z,47.01
2024-04-16T01:47:49.170Z,48.97
2024-04-16T01:50:16.439Z,51.60
2024-04-16T01:52:43.579Z,54.92
2024-04-16T01:55:10.629Z,61.00
2024-04-16T01:57:38.053Z,62.17
2024-04-16T02:00:05.586Z,60.83
2024-04-16T02:02:32.957Z,62.48
2024-04-16T02:05:00.038Z,63.39
2024-04-16T02:07:28.209Z,64.60
2024-04-16T02:09:55.390Z,64.09
2024-04-16T02:12:22.387Z,64.76
2024-04-16T02:14:50.780Z,64.27
2024-04-16T02:17:17.875Z,64.94
2024-04-16T02:19:45.004Z,66.88
2024-04-16T02:22:12.882Z,65.49
2024-04-16T02:24:40.090Z,66.72
2024-04-16T02:27:07.171Z,65.83
2024-04-16T02:29:34.153Z,65.56
2024-04-16T02:32:01.431Z,64.62
2024-04-16T02:34:28.674Z,63.79
2024-04-16T02:36:55.987Z,64.80
2024-04-16T02:39:23.287Z,64.47
2024-04-16T02:41:50.282Z,63.97
2024-04-16T02:44:17.365Z,63.64
2024-04-16T02:46:44.454Z,63.67
2024-04-16T02:49:11.521Z,63.23
2024-04-16T02:51:38.867Z,64.15
2024-04-16T02:54:05.935Z,63.54
2024-04-16T02:56:33.338Z,62.72
2024-04-16T02:59:00.341Z,64.04
2024-04-16T03:01:27.565Z,63.78
2024-04-16T03:03:58.563Z,63.53
2024-04-16T03:06:26.328Z,63.46
2024-04-16T03:08:53.418Z,64.12
2024-04-16T03:11:20.484Z,63.87
2024-04-16T03:13:47.650Z,63.83
2024-04-16T03:16:14.693Z,64.33
2024-04-16T03:18:41.858Z,63.21
2024-04-16T03:21:08.917Z,64.27
2024-04-16T03:23:36.037Z,64.24
2024-04-16T03:26:04.778Z,63.98
2024-04-16T03:28:32.135Z,62.64
2024-04-16T03:30:59.145Z,64.69
2024-04-16T03:33:26.227Z,64.03
2024-04-16T03:35:55.428Z,63.92
2024-04-16T03:38:23.170Z,63.51
2024-04-16T03:40:58.709Z,65.23
2024-04-16T03:43:27.645Z,65.80
2024-04-16T03:45:58.365Z,65.91
2024-04-16T03:48:26.567Z,66.63
2024-04-16T03:51:00.317Z,67.45
2024-04-16T03:53:27.384Z,66.73
2024-04-16T03:56:00.000Z,66.30
2024-04-16T03:58:37.266Z,66.65
2024-04-16T04:04:05.161Z,66.04
2024-04-16T04:06:38.846Z,66.56
2024-04-16T04:09:06.132Z,65.63
2024-04-16T04:11:40.094Z,65.93
2024-04-16T04:14:07.275Z,66.84
2024-04-16T04:16:34.738Z,67.59
2024-04-16T04:19:02.053Z,67.58
2024-04-16T04:21:29.411Z,67.03
2024-04-16T04:23:56.546Z,66.82
2024-04-16T04:26:25.065Z,66.07
2024-04-16T04:28:52.408Z,64.92
2024-04-16T04:31:20.666Z,66.25
2024-04-16T04:33:48.236Z,65.62
2024-04-16T04:36:16.030Z,65.21
2024-04-16T04:38:43.135Z,64.89
2024-04-16T04:41:13.517Z,64.90
2024-04-16T04:43:40.591Z,64.88
2024-04-16T04:46:07.835Z,64.46
2024-04-16T04:48:35.011Z,63.34
2024-04-16T04:51:02.120Z,63.14
2024-04-16T04:53:29.391Z,64.51
2024-04-16T04:55:56.804Z,62.96
2024-04-16T04:58:24.040Z,64.04
2024-04-16T05:00:51.095Z,64.28
2024-04-16T05:03:18.306Z,64.24
2024-04-16T05:05:47.553Z,64.23
2024-04-16T05:08:14.837Z,63.51
2024-04-16T05:10:42.151Z,63.53
2024-04-16T05:13:09.535Z,64.13
2024-04-16T05:15:36.756Z,62.53
2024-04-16T05:18:04.159Z,61.99
2024-04-16T05:20:33.280Z,60.18
2024-04-16T05:23:00.673Z,61.33
2024-04-16T05:25:28.075Z,60.88
2024-04-16T05:27:55.402Z,59.61
2024-04-16T05:30:22.529Z,59.30
2024-04-16T05:32:52.403Z,60.08
2024-04-16T05:35:19.859Z,61.49
2024-04-16T05:37:47.875Z,60.16
2024-04-16T05:40:16.687Z,59.43
2024-04-16T05:42:45.842Z,58.16
2024-04-16T05:45:13.357Z,58.88
2024-04-16T05:47:40.622Z,59.13
2024-04-16T05:50:08.131Z,59.33
2024-04-16T05:52:35.271Z,58.58
2024-04-16T05:55:03.111Z,56.70
2024-04-16T05:57:30.770Z,56.03
2024-04-16T05:59:59.722Z,54.94
2024-04-16T06:02:28.415Z,54.95
2024-04-16T06:04:55.670Z,53.72
2024-04-16T06:07:23.019Z,54.18
2024-04-16T06:09:50.043Z,54.25
2024-04-16T06:12:17.821Z,53.95
2024-04-16T06:14:44.997Z,53.05
2024-04-16T06:17:14.640Z,51.22
2024-04-16T06:19:44.883Z,51.66
2024-04-16T06:22:18.370Z,51.97
2024-04-16T06:24:45.799Z,50.82
2024-04-16T06:27:13.084Z,52.09
2024-04-16T06:29:40.108Z,51.26
2024-04-16T06:32:07.545Z,50.72
2024-04-16T06:34:34.697Z,50.49
2024-04-16T06:37:01.892Z,49.99
2024-04-16T06:39:29.031Z,46.17
2024-04-16T06:42:02.402Z,42.10
2024-04-16T06:44:29.791Z,36.13
2024-04-16T06:46:57.036Z,31.43
2024-04-16T06:49:24.390Z,28.21
2024-04-16T06:51:51.579Z,27.69
2024-04-16T06:54:20.009Z,28.55
2024-04-16T06:56:47.177Z,30.36
2024-04-16T06:59:16.296Z,32.98
2024-04-16T07:03:43.893Z,36.39
2024-04-16T07:06:11.064Z,37.32
2024-04-16T07:08:38.090Z,39.14
2024-04-16T07:11:08.757Z,39.59
2024-04-16T07:13:36.282Z,40.08
2024-04-16T07:16:03.944Z,40.28
2024-04-16T07:18:31.032Z,40.37
2024-04-16T07:20:58.120Z,40.52
2024-04-16T07:23:25.269Z,37.64
2024-04-16T07:25:52.443Z,37.33
2024-04-16T07:28:19.748Z,38.63
2024-04-16T07:30:54.637Z,36.44
2024-04-16T07:33:30.246Z,34.97
2024-04-16T07:35:57.593Z,35.06
2024-04-16T07:38:24.667Z,35.15
2024-04-16T07:40:55.602Z,36.50
2024-04-16T07:43:25.273Z,36.88
2024-04-16T07:45:52.772Z,38.36
2024-04-16T07:48:20.150Z,39.03
2024-04-16T07:50:50.644Z,39.98
2024-04-16T07:53:18.180Z,41.79
2024-04-16T07:55:45.406Z,42.00
2024-04-16T07:58:13.070Z,42.41
2024-04-16T08:00:41.397Z,43.45
2024-04-16T08:03:11.672Z,42.49
2024-04-16T08:05:38.934Z,42.56
2024-04-16T08:08:11.204Z,42.12
2024-04-16T08:10:41.800Z,42.08
2024-04-16T08:13:09.262Z,42.33
2024-04-16T08:15:36.512Z,40.75
2024-04-16T08:18:04.784Z,40.57
2024-04-16T08:20:32.868Z,35.27
2024-04-16T08:22:59.936Z,33.29
2024-04-16T08:25:27.122Z,32.01
2024-04-16T08:27:54.377Z,29.08
2024-04-16T08:30:21.570Z,25.14
2024-04-16T08:32:48.765Z,22.72
2024-04-16T08:35:29.721Z,21.19
2024-04-16T08:37:57.137Z,22.65
2024-04-16T08:40:25.298Z,24.47
2024-04-16T08:42:53.226Z,27.60
2024-04-16T08:45:21.378Z,29.46
2024-04-16T08:47:49.007Z,30.88
2024-04-16T08:50:16.230Z,27.62
2024-04-16T08:52:43.558Z,26.38
2024-04-16T08:55:10.670Z,25.13
2024-04-16T08:57:37.951Z,23.70
2024-04-16T09:00:05.490Z,22.73
2024-04-16T09:02:35.377Z,22.23
2024-04-16T09:05:04.143Z,21.47
2024-04-16T09:07:32.166Z,19.32
2024-04-16T09:09:59.488Z,19.46
2024-04-16T09:12:26.688Z,19.02
2024-04-16T09:14:53.967Z,19.28
2024-04-16T09:17:21.136Z,19.26
2024-04-16T09:19:48.710Z,19.53
2024-04-16T09:22:15.908Z,20.07
2024-04-16T09:24:42.967Z,19.85
2024-04-16T09:27:10.944Z,19.89
2024-04-16T09:29:38.247Z,20.47
2024-04-16T09:32:06.278Z,21.38
2024-04-16T09:34:33.595Z,21.48
2024-04-16T09:37:02.037Z,22.41
2024-04-16T09:39:29.720Z,21.96
2024-04-16T09:41:56.812Z,22.30
2024-04-16T09:44:24.287Z,22.42
2024-04-16T09:46:55.218Z,23.63
2024-04-16T09:49:26.615Z,23.84
2024-04-16T09:52:00.748Z,25.45
2024-04-16T09:54:27.778Z,25.90
2024-04-16T09:56:54.894Z,26.64
2024-04-16T09:59:22.255Z,26.99
2024-04-16T10:03:50.359Z,29.47
2024-04-16T10:06:17.715Z,27.47
2024-04-16T10:08:44.921Z,28.66
2024-04-16T10:11:17.847Z,27.89
2024-04-16T10:13:53.893Z,27.55
2024-04-16T10:16:20.929Z,29.13
2024-04-16T10:18:57.676Z,28.79
2024-04-16T10:21:28.259Z,28.14
2024-04-16T10:24:07.673Z,28.92
2024-04-16T10:26:41.343Z,29.92
2024-04-16T10:29:15.586Z,29.89
2024-04-16T10:31:45.475Z,29.85
2024-04-16T10:34:26.369Z,30.36
2024-04-16T10:36:54.177Z,30.51
2024-04-16T10:39:22.394Z,31.54
2024-04-16T10:41:58.180Z,32.53
2024-04-16T10:44:25.575Z,31.62
2024-04-16T10:46:53.788Z,31.00
2024-04-16T10:49:24.749Z,31.86
2024-04-16T10:51:52.361Z,31.95
2024-04-16T10:54:20.014Z,32.02
2024-04-16T10:56:49.307Z,31.90
2024-04-16T10:59:17.845Z,31.42
2024-04-16T11:01:48.449Z,31.65
2024-04-16T11:04:20.007Z,31.86
2024-04-16T11:06:47.984Z,30.99
2024-04-16T11:09:16.159Z,30.22
2024-04-16T11:11:44.034Z,30.85
2024-04-16T11:14:11.513Z,30.40
2024-04-16T11:16:43.426Z,30.70
2024-04-16T11:19:14.353Z,30.90
2024-04-16T11:21:42.274Z,29.77
2024-04-16T11:24:09.574Z,30.32
2024-04-16T11:26:40.394Z,29.84
2024-04-16T11:29:07.739Z,29.90
2024-04-16T11:31:34.816Z,29.44
2024-04-16T11:34:02.227Z,29.12
2024-04-16T11:36:29.436Z,29.56
2024-04-16T11:38:56.726Z,29.46
2024-04-16T11:41:24.216Z,29.50
2024-04-16T11:43:51.804Z,30.63
2024-04-16T11:46:19.135Z,29.00
2024-04-16T11:48:46.775Z,30.02
2024-04-16T11:51:13.872Z,28.99
2024-04-16T11:53:41.840Z,31.04
2024-04-16T11:56:12.607Z,29.82
2024-04-16T11:58:44.310Z,29.90
2024-04-16T12:01:12.218Z,30.08
2024-04-16T12:03:40.709Z,28.95
2024-04-16T12:06:08.071Z,28.80
2024-04-16T12:08:35.255Z,28.33
2024-04-16T12:11:02.826Z,28.12
2024-04-16T12:13:30.164Z,28.42
2024-04-16T12:15:57.227Z,28.34
2024-04-16T12:18:24.511Z,27.20
2024-04-16T12:20:51.651Z,27.70
2024-04-16T12:23:19.052Z,27.46
2024-04-16T12:25:51.578Z,29.77
2024-04-16T12:28:20.441Z,27.89
2024-04-16T12:30:47.575Z,27.77
2024-04-16T12:33:16.824Z,29.50
2024-04-16T12:35:45.187Z,28.30
2024-04-16T12:38:12.783Z,27.86
2024-04-16T12:40:40.304Z,28.58
2024-04-16T12:43:07.519Z,28.05
2024-04-16T12:45:34.697Z,28.50
2024-04-16T12:48:02.242Z,29.40
2024-04-16T12:50:29.448Z,28.74
2024-04-16T12:52:56.529Z,27.68
2024-04-16T12:55:23.683Z,29.06
2024-04-16T12:57:51.193Z,28.49
2024-04-16T13:03:39.629Z,28.23
2024-04-16T13:06:06.953Z,28.83
2024-04-16T13:08:33.994Z,28.41
2024-04-16T13:11:01.180Z,27.82
2024-04-16T13:13:28.496Z,28.53
2024-04-16T13:15:57.382Z,28.68
2024-04-16T13:18:24.428Z,28.97
2024-04-16T13:20:56.315Z,29.79
2024-04-16T13:23:23.555Z,29.54
2024-04-16T13:25:51.004Z,30.33
2024-04-16T13:28:18.326Z,29.91
2024-04-16T13:30:54.934Z,31.35
2024-04-16T13:33:22.216Z,32.33
2024-04-16T13:35:52.850Z,31.79
2024-04-16T13:38:21.166Z,31.08
2024-04-16T13:40:48.609Z,32.13
2024-04-16T13:43:20.131Z,30.67
2024-04-16T13:45:50.453Z,31.61
2024-04-16T13:48:17.618Z,29.78
2024-04-16T13:50:44.998Z,29.35
2024-04-16T13:53:12.117Z,30.46
2024-04-16T13:55:39.535Z,30.21
2024-04-16T13:58:08.137Z,30.10
2024-04-16T14:00:38.670Z,31.61
2024-04-16T14:03:06.324Z,31.75
2024-04-16T14:05:34.042Z,30.09
2024-04-16T14:08:01.168Z,30.36
2024-04-16T14:10:28.293Z,30.17
2024-04-16T14:12:55.733Z,31.27
2024-04-16T14:15:26.806Z,30.31
2024-04-16T14:17:54.769Z,28.33
2024-04-16T14:20:22.447Z,28.27
2024-04-16T14:22:50.860Z,27.63
2024-04-16T14:25:18.061Z,27.68
2024-04-16T14:27:45.156Z,28.70
2024-04-16T14:30:12.969Z,27.84
2024-04-16T14:32:40.441Z,28.01
2024-04-16T14:35:07.908Z,28.38
2024-04-16T14:37:35.225Z,28.40
2024-04-16T14:40:02.670Z,28.49
2024-04-16T14:42:29.771Z,28.70
2024-04-16T14:44:56.800Z,29.51
2024-04-16T14:47:24.322Z,29.99
2024-04-16T14:49:51.502Z,30.97
2024-04-16T14:52:18.962Z,31.49
2024-04-16T14:54:46.127Z,32.30
2024-04-16T14:57:20.030Z,32.53
2024-04-16T14:59:49.440Z,33.34
2024-04-16T15:02:17.224Z,32.34
2024-04-16T15:04:44.250Z,33.12
2024-04-16T15:07:11.382Z,34.21
2024-04-16T15:09:39.109Z,34.31
2024-04-16T15:12:06.726Z,32.29
2024-04-16T15:14:33.981Z,33.06
2024-04-16T15:17:01.318Z,33.28
2024-04-16T15:19:28.756Z,32.68
2024-04-16T15:21:55.815Z,34.25
2024-04-16T15:24:23.033Z,34.13
2024-04-16T15:26:50.278Z,34.07
2024-04-16T15:29:17.466Z,33.55
2024-04-16T15:31:44.780Z,33.82
2024-04-16T15:34:12.357Z,34.32
2024-04-16T15:36:39.795Z,34.44
2024-04-16T15:39:06.889Z,34.64
2024-04-16T15:41:34.394Z,34.83
2024-04-16T15:44:01.887Z,35.60
2024-04-16T15:46:29.456Z,35.21
2024-04-16T15:48:56.943Z,34.93
2024-04-16T15:51:26.339Z,36.16
2024-04-16T15:53:53.438Z,35.60
2024-04-16T15:56:20.737Z,35.11
2024-04-16T15:58:48.008Z,35.37
2024-04-16T16:14:10.510Z,36.06
2024-04-16T16:16:38.080Z,35.67
2024-04-16T16:19:05.332Z,36.27
2024-04-16T16:21:34.815Z,35.89
2024-04-16T16:24:02.060Z,35.75
2024-04-16T16:26:29.178Z,36.00
2024-04-16T16:28:56.246Z,36.02
2024-04-16T16:31:23.894Z,36.69
2024-04-16T16:33:51.482Z,35.93
2024-04-16T16:36:18.810Z,36.05
2024-04-16T16:38:46.158Z,36.03
2024-04-16T16:41:13.527Z,36.13
2024-04-16T16:43:40.950Z,36.45
2024-04-16T16:46:08.158Z,36.43
2024-04-16T16:48:35.296Z,37.04
2024-04-16T16:51:02.463Z,37.23
2024-04-16T16:53:30.006Z,37.15
2024-04-16T16:56:00.337Z,36.94
2024-04-16T16:58:27.615Z,37.57
2024-04-16T17:00:54.940Z,37.38
2024-04-16T17:03:24.112Z,37.83
2024-04-16T17:05:51.729Z,38.77
2024-04-16T17:08:19.225Z,39.20
2024-04-16T17:10:46.466Z,39.72
2024-04-16T17:13:14.357Z,39.26
2024-04-16T17:15:44.376Z,38.72
2024-04-16T17:18:11.773Z,39.03
2024-04-16T17:20:39.164Z,39.03
2024-04-16T17:23:06.191Z,39.48
2024-04-16T17:25:33.508Z,39.10
2024-04-16T17:28:00.682Z,38.24
2024-04-16T17:30:27.709Z,39.23
2024-04-16T17:32:55.047Z,39.42
2024-04-16T17:35:22.995Z,39.64
2024-04-16T17:37:50.265Z,38.81
2024-04-16T17:40:20.980Z,39.13
2024-04-16T17:42:48.061Z,39.66
2024-04-16T17:45:15.206Z,40.53
2024-04-16T17:47:43.559Z,39.92
2024-04-16T17:50:12.670Z,39.64
2024-04-16T17:52:40.446Z,40.08
2024-04-16T17:55:08.950Z,40.28
2024-04-16T17:57:36.547Z,40.27
2024-04-16T18:00:04.333Z,40.03
2024-04-16T18:02:31.560Z,40.50
2024-04-16T18:04:58.918Z,40.84
2024-04-16T18:07:26.287Z,41.97
2024-04-16T18:09:55.400Z,43.45
2024-04-16T18:12:24.124Z,46.12
2024-04-16T18:14:51.456Z,48.12
2024-04-16T18:17:20.080Z,48.05
2024-04-16T18:19:49.954Z,48.34
2024-04-16T18:22:17.296Z,50.86
2024-04-16T18:24:44.896Z,51.21
2024-04-16T18:27:12.372Z,53.54
2024-04-16T18:29:40.144Z,54.75
2024-04-16T18:32:07.662Z,55.41
2024-04-16T18:34:35.091Z,55.28
2024-04-16T18:37:05.314Z,57.25
2024-04-16T18:39:32.740Z,57.64
2024-04-16T18:41:59.829Z,56.28
2024-04-16T18:44:27.086Z,56.02
2024-04-16T18:46:54.398Z,55.98
2024-04-16T18:49:21.672Z,55.86
2024-04-16T18:51:49.034Z,55.24
2024-04-16T18:54:16.378Z,56.94
2024-04-16T18:56:43.889Z,58.01
2024-04-16T18:59:11.076Z,58.69
2024-04-16T19:03:43.473Z,60.70
2024-04-16T19:06:15.208Z,62.51
2024-04-16T19:08:42.408Z,61.65
2024-04-16T19:11:10.853Z,62.45
2024-04-16T19:13:40.183Z,63.96
2024-04-16T19:16:08.800Z,63.63
2024-04-16T19:18:36.803Z,64.03
2024-04-16T19:21:04.307Z,64.97
2024-04-16T19:23:34.650Z,64.15
2024-04-16T19:26:01.722Z,65.39
2024-04-16T19:28:29.311Z,67.00
2024-04-16T19:30:56.860Z,66.21
2024-04-16T19:33:24.630Z,64.86
2024-04-16T19:35:53.319Z,66.38
2024-04-16T19:38:20.498Z,66.69
2024-04-16T19:40:47.862Z,66.31
2024-04-16T19:43:15.005Z,66.62
2024-04-16T19:45:42.091Z,66.14
2024-04-16T19:48:11.777Z,64.90
2024-04-16T19:50:42.428Z,64.90
2024-04-16T19:53:09.534Z,65.94
2024-04-16T19:55:37.237Z,65.28
2024-04-16T19:58:04.425Z,65.78
2024-04-16T20:00:33.443Z,65.76
2024-04-16T20:03:01.233Z,66.34
2024-04-16T20:05:29.967Z,66.12
2024-04-16T20:07:57.332Z,65.49
2024-04-16T20:10:24.730Z,65.63
2024-04-16T20:12:51.862Z,65.20
2024-04-16T20:15:18.923Z,65.86
2024-04-16T20:17:46.171Z,64.83
2024-04-16T20:20:13.337Z,63.81
2024-04-16T20:22:40.411Z,63.91
2024-04-16T20:25:07.633Z,63.98
2024-04-16T20:27:34.788Z,63.38
2024-04-16T20:30:01.762Z,62.96
2024-04-16T20:32:28.830Z,62.62
2024-04-16T20:34:55.947Z,61.87
2024-04-16T20:37:23.116Z,62.14
2024-04-16T20:39:50.306Z,63.66
2024-04-16T20:42:17.512Z,64.05
2024-04-16T20:44:44.666Z,64.63
2024-04-16T20:47:11.718Z,64.93
2024-04-16T20:49:39.170Z,62.75
2024-04-16T20:52:06.419Z,63.90
2024-04-16T20:54:33.497Z,64.03
2024-04-16T20:57:00.811Z,63.43
2024-04-16T20:59:28.153Z,64.78
2024-04-16T21:01:55.309Z,64.04
2024-04-16T21:04:22.532Z,64.75
2024-04-16T21:06:49.881Z,63.80
2024-04-16T21:09:17.002Z,63.34
2024-04-16T21:11:43.981Z,64.66
2024-04-16T21:14:11.285Z,65.63
2024-04-16T21:16:38.657Z,64.88
2024-04-16T21:19:05.912Z,64.77
2024-04-16T21:21:33.083Z,65.22
2024-04-16T21:24:00.235Z,64.98
2024-04-16T21:26:27.604Z,65.67
2024-04-16T21:28:54.800Z,64.41
2024-04-16T21:31:22.136Z,64.20
2024-04-16T21:33:49.837Z,62.97
2024-04-16T21:36:17.702Z,61.80
2024-04-16T21:38:44.765Z,62.05
2024-04-16T21:41:14.843Z,63.31
2024-04-16T21:43:43.733Z,62.44
2024-04-16T21:46:11.865Z,63.06
2024-04-16T21:48:39.124Z,61.94
2024-04-16T21:51:06.450Z,62.54
2024-04-16T21:53:33.707Z,63.00
2024-04-16T21:56:01.586Z,64.13
2024-04-16T21:58:29.040Z,62.95
2024-04-16T22:03:49.984Z,64.44
2024-04-16T22:06:17.231Z,65.40
2024-04-16T22:08:44.591Z,64.73
2024-04-16T22:11:12.011Z,63.55
2024-04-16T22:13:39.740Z,65.02
2024-04-16T22:16:07.280Z,62.98
2024-04-16T22:18:34.730Z,64.61
2024-04-16T22:21:03.282Z,64.72
2024-04-16T22:23:30.647Z,63.19
2024-04-16T22:26:07.184Z,63.24
2024-04-16T22:28:35.944Z,63.29
2024-04-16T22:31:03.039Z,62.88
2024-04-16T22:33:33.124Z,62.42
2024-04-16T22:36:00.314Z,61.70
2024-04-16T22:38:27.460Z,62.28
2024-04-16T22:40:54.799Z,61.92
2024-04-16T22:43:21.997Z,62.87
2024-04-16T22:45:56.513Z,62.55
2024-04-16T22:48:25.291Z,62.72
2024-04-16T22:50:54.048Z,61.81
2024-04-16T22:53:21.242Z,63.11
2024-04-16T22:55:49.764Z,63.39
2024-04-16T22:58:17.278Z,64.58
2024-04-16T23:00:44.525Z,63.90
2024-04-16T23:03:14.207Z,62.68
2024-04-16T23:05:42.167Z,62.38
2024-04-16T23:08:09.377Z,63.44
2024-04-16T23:10:37.551Z,63.07
2024-04-16T23:13:05.289Z,62.63
2024-04-16T23:15:32.659Z,63.24
2024-04-16T23:18:01.797Z,62.39
2024-04-16T23:20:29.110Z,62.53
2024-04-16T23:22:56.427Z,61.69
2024-04-16T23:25:23.921Z,61.63
2024-04-16T23:27:50.959Z,62.59
2024-04-16T23:30:18.050Z,62.11
2024-04-16T23:32:45.111Z,62.47
2024-04-16T23:35:12.433Z,62.39
2024-04-16T23:37:39.662Z,61.97
2024-04-16T23:40:07.659Z,61.28
2024-04-16T23:42:34.804Z,61.63
2024-04-16T23:45:02.030Z,60.96
2024-04-16T23:47:29.141Z,61.54
2024-04-16T23:49:56.668Z,61.43
2024-04-16T23:52:24.338Z,60.38
2024-04-16T23:54:52.458Z,60.16
2024-04-16T23:57:19.455Z,60.14
2024-04-16T23:59:46.461Z,59.46
